New Nada — 3ELP9 — position and weather

sailwx.info

Track history (hours):
 
Tides and Currents Weather Stations Pressure Air Temp Water Temp Dewpoint Dewpoint Depression Visibility Wind Speed Wind Dir Waves Ship Positions

New Nada

Last reported at 2018-Apr-08 07:39 UTC. Time now 2018-Apr-20 18:41 UTC.
Position N 36°45' W 123°03'.
Warning: this ship's position is 12 days out of date.

Length 180 m; beam 32.2 m.

Type: Cargo ship. MMSI: 356005000.

Date/timePositionNaut miles runAvg speedWind from/ knotsBaromVisibWave heightAir tempDewpointWater temp
2018-Apr-08 07:39N 36°45' W 123°03'416.8
2018-Apr-08 07:26N 36°48' W 123°01'816.7
2018-Apr-08 06:57N 36°55' W 122°57'716.8
2018-Apr-08 06:30N 37°02' W 122°53'816.7
2018-Apr-08 06:00N 37°10' W 122°49'816.1
2018-Apr-08 05:31N 37°17' W 122°44'714.3
2018-Apr-08 05:00N 37°24' W 122°43'714.1
2018-Apr-08 04:30N 37°31' W 122°43'714.2
2018-Apr-08 04:00N 37°38' W 122°44'713.1
2018-Apr-08 03:30N 37°44' W 122°40'4 8.5
2018-Apr-08 03:01N 37°47' W 122°36'612.6
2018-Apr-08 02:30N 37°49' W 122°29'5 9.4
2018-Apr-08 02:00N 37°53' W 122°26'611.6
2018-Apr-08 01:30N 37°59' W 122°25'612.1
2018-Apr-08 01:00N 38°03' W 122°20'612.5
2018-Apr-08 00:30N 38°03' W 122°12'3 5.4
2018-Apr-07 23:57N 38°02' W 122°08'0 0.0
2018-Apr-07 23:28N 38°02' W 122°08'0 0.1
2018-Apr-07 22:46N 38°02' W 122°08'0 0.2
2018-Apr-07 22:28N 38°02' W 122°08'0 0.1
2018-Apr-07 21:58N 38°02' W 122°08'0 0.0
2018-Apr-07 21:22N 38°02' W 122°08'0 0.1
2018-Apr-07 20:52N 38°02' W 122°08'0 0.1
2018-Apr-07 20:22N 38°02' W 122°08'0 0.1
2018-Apr-07 19:58N 38°02' W 122°08'0 0.0
2018-Apr-07 19:28N 38°02' W 122°08'0 0.1
2018-Apr-07 18:46N 38°02' W 122°08'0 0.0
2018-Apr-07 18:10N 38°02' W 122°08'0 0.0
2018-Apr-07 17:58N 38°02' W 122°08'0 0.0
2018-Apr-07 16:34N 38°02' W 122°08'0 0.5
2018-Apr-07 16:28N 38°02' W 122°08'0 0.1
2018-Apr-07 15:58N 38°02' W 122°08'0 0.1
2018-Apr-07 15:28N 38°02' W 122°08'0 0.1
2018-Apr-07 14:52N 38°02' W 122°08'0 0.0
2018-Apr-07 14:28N 38°02' W 122°08'0 0.0
2018-Apr-07 13:40N 38°02' W 122°08'0 0.0
2018-Apr-07 13:28N 38°02' W 122°08'0 0.1
2018-Apr-07 12:58N 38°02' W 122°08'0 0.1
2018-Apr-07 12:22N 38°02' W 122°08'0 0.0
2018-Apr-07 11:58N 38°02' W 122°08'0 0.0
2018-Apr-07 11:16N 38°02' W 122°08'0 0.2
2018-Apr-07 11:00N 38°02' W 122°08'1 1.8
2018-Apr-07 10:30N 38°02' W 122°09'611.1
2018-Apr-07 10:00N 38°04' W 122°16'713.6
2018-Apr-07 09:30N 38°01' W 122°24'713.7
2018-Apr-07 09:01N 37°55' W 122°27'4 8.2
2018-Apr-07 08:30N 37°51' W 122°27'611.9
2018-Apr-07 08:00N 37°47' W 122°33'713.1
2018-Apr-07 07:30N 37°45' W 122°41'2 4.1
2018-Apr-07 07:00N 37°43' W 122°40'4 7.1
2018-Apr-07 06:30N 37°39' W 122°40'510.0
2018-Apr-07 06:00N 37°34' W 122°40'4 8.6
2018-Apr-07 05:30N 37°30' W 122°40'5 9.3
2018-Apr-07 05:00N 37°25' W 122°40'5 9.6
2018-Apr-07 04:30N 37°20' W 122°40'5 9.9
2018-Apr-07 04:00N 37°16' W 122°40'510.9
2018-Apr-07 03:31N 37°10' W 122°40'3 5.7
2018-Apr-07 03:00N 37°08' W 122°38'1 2.0
2018-Apr-07 02:29N 37°07' W 122°39'1 2.0
2018-Apr-07 02:00N 37°06' W 122°40'1 1.9
2018-Apr-07 01:30N 37°05' W 122°40'0 0.4
2018-Apr-07 01:00N 37°06' W 122°40'2 1.9
2018-Apr-07 00:04N 37°04' W 122°41'0 1.6
2018-Apr-06 23:59N 37°04' W 122°41'1 1.4
2018-Apr-06 23:29N 37°03' W 122°41'4 9.4
2018-Apr-06 23:00N 36°59' W 122°38'11015.4
2018-Apr-06 15:52N 35°23' W 121°33'917.4
2018-Apr-06 15:22N 35°15' W 121°27'716.6
2018-Apr-06 14:58N 35°10' W 121°23'1116.8
2018-Apr-06 14:20N 35°00' W 121°16'616.6
2018-Apr-06 13:59N 34°55' W 121°13'916.6
2018-Apr-06 13:28N 34°48' W 121°07'916.9
2018-Apr-06 12:58N 34°41' W 121°02'716.0
2018-Apr-06 12:30N 34°34' W 120°58'816.2
2018-Apr-06 12:00N 34°27' W 120°52'915.7
2018-Apr-06 11:26N 34°24' W 120°42'1116.7
2018-Apr-06 10:46N 34°21' W 120°30'516.4
2018-Apr-06 10:27N 34°20' W 120°23'1216.8
2018-Apr-06 09:44N 34°16' W 120°09'616.5
2018-Apr-06 09:24N 34°15' W 120°03'716.8
2018-Apr-06 08:59N 34°13' W 119°55'816.7
2018-Apr-06 08:29N 34°11' W 119°45'816.6
2018-Apr-06 08:00N 34°09' W 119°36'816.6
2018-Apr-06 07:30N 34°07' W 119°26'816.0
2018-Apr-06 06:59N 34°04' W 119°16'814.2
2018-Apr-06 06:23N 34°00' W 119°08'511.6
2018-Apr-06 05:59N 33°58' W 119°03'510.2
2018-Apr-06 05:30N 33°56' W 118°57'510.7
2018-Apr-06 05:00N 33°53' W 118°52'510.6
2018-Apr-06 04:30N 33°50' W 118°46'510.7
2018-Apr-06 04:01N 33°48' W 118°41'510.7
2018-Apr-06 03:31N 33°45' W 118°35'510.8
2018-Apr-06 03:00N 33°42' W 118°29'510.7
2018-Apr-06 02:30N 33°40' W 118°24'510.3
2018-Apr-06 02:01N 33°38' W 118°18'5 9.7
2018-Apr-06 01:31N 33°40' W 118°12'4 7.4
2018-Apr-06 01:01N 33°43' W 118°11'3 5.9
2018-Apr-06 00:30N 33°46' W 118°13'1 1.7
2018-Apr-06 00:01N 33°46' W 118°13'0 0.0
2018-Apr-05 23:28N 33°46' W 118°13'0 0.0
2018-Apr-05 22:58N 33°46' W 118°13'0 0.0
2018-Apr-05 22:28N 33°46' W 118°13'0 0.0
2018-Apr-05 21:58N 33°46' W 118°13'0 0.0
2018-Apr-05 21:25N 33°46' W 118°13'0 0.0
2018-Apr-05 20:58N 33°46' W 118°13'0 0.0
2018-Apr-05 20:28N 33°46' W 118°13'0 0.0
2018-Apr-05 19:58N 33°46' W 118°13'0 0.0
2018-Apr-05 19:28N 33°46' W 118°13'0 0.0
2018-Apr-05 18:58N 33°46' W 118°13'0 0.0
2018-Apr-05 18:28N 33°46' W 118°13'0 0.0
2018-Apr-05 17:55N 33°46' W 118°13'0 0.0
2018-Apr-05 17:28N 33°46' W 118°13'0 0.0
2018-Apr-05 16:58N 33°46' W 118°13'0 0.0
2018-Apr-05 16:28N 33°46' W 118°13'0 0.0
2018-Apr-05 15:58N 33°46' W 118°13'0 0.0
2018-Apr-05 15:25N 33°46' W 118°13'0 0.0
2018-Apr-05 14:58N 33°46' W 118°13'0 0.0
2018-Apr-05 14:28N 33°46' W 118°13'0 0.0
2018-Apr-05 13:55N 33°46' W 118°13'0 0.0
2018-Apr-05 13:28N 33°46' W 118°13'0 0.0
2018-Apr-05 12:58N 33°46' W 118°13'0 0.0
2018-Apr-05 12:28N 33°46' W 118°13'0 0.0
2018-Apr-05 11:58N 33°46' W 118°13'0 0.0
2018-Apr-05 11:28N 33°46' W 118°13'0 0.0
2018-Apr-05 10:58N 33°46' W 118°13'0 0.0
2018-Apr-05 10:28N 33°46' W 118°13'0 0.0
2018-Apr-05 09:58N 33°46' W 118°13'0 0.0
2018-Apr-05 09:25N 33°46' W 118°13'0 0.0
2018-Apr-05 08:55N 33°46' W 118°13'0 0.0
2018-Apr-05 08:28N 33°46' W 118°13'0 0.2
2018-Apr-05 08:00N 33°46' W 118°13'1 2.3
2018-Apr-05 07:30N 33°45' W 118°13'4 7.4
2018-Apr-05 07:00N 33°42' W 118°11'4 7.8
2018-Apr-05 06:30N 33°38' W 118°11'5 8.0
2018-Apr-05 05:53N 33°36' W 118°17'10 8.5
2018-Apr-05 04:39N 33°40' W 118°28'1 9.6
2018-Apr-05 04:30N 33°40' W 118°30'4 7.7
2018-Apr-05 04:00N 33°42' W 118°34'510.0
2018-Apr-05 03:30N 33°45' W 118°39'510.0
2018-Apr-05 03:00N 33°47' W 118°44'510.0
2018-Apr-05 02:30N 33°50' W 118°49'5 9.7
2018-Apr-05 02:00N 33°52' W 118°55'510.0
2018-Apr-05 01:30N 33°55' W 118°60'510.0
2018-Apr-05 01:00N 33°57' W 119°05'510.2
2018-Apr-05 00:30N 33°60' W 119°10'510.8
2018-Apr-05 00:00N 34°02' W 119°16'612.2
2018-Apr-04 23:30N 34°04' W 119°23'713.6
2018-Apr-04 23:00N 34°06' W 119°31'713.9
2018-Apr-04 22:30N 34°08' W 119°39'714.1
2018-Apr-04 21:59N 34°10' W 119°48'714.3
2018-Apr-04 21:29N 34°12' W 119°56'714.0
2018-Apr-04 21:00N 34°13' W 120°04'714.0
2018-Apr-04 20:29N 34°15' W 120°12'814.5
2018-Apr-04 19:58N 34°17' W 120°21'714.3
2018-Apr-04 19:30N 34°19' W 120°29'714.3
2018-Apr-04 19:00N 34°21' W 120°37'714.1
2018-Apr-04 18:30N 34°23' W 120°45'815.9
2018-Apr-04 18:00N 34°23' W 120°55'815.9
2018-Apr-04 17:30N 34°18' W 121°02'713.8
2018-Apr-04 17:00N 34°14' W 121°09'4 7.8
2018-Apr-04 16:30N 34°10' W 121°11'0 1.0
2018-Apr-04 16:00N 34°11' W 121°11'1 1.0
2018-Apr-04 15:29N 34°11' W 121°12'1 1.2
2018-Apr-04 15:00N 34°11' W 121°12'1 1.1
2018-Apr-04 14:30N 34°12' W 121°12'1 1.1
2018-Apr-04 13:58N 34°12' W 121°13'1 1.2
2018-Apr-04 13:30N 34°13' W 121°13'1 1.1
2018-Apr-04 13:01N 34°13' W 121°13'1 1.4
2018-Apr-04 12:30N 34°14' W 121°14'1 1.5
2018-Apr-04 12:00N 34°15' W 121°14'1 1.6
2018-Apr-04 11:30N 34°15' W 121°14'1 1.6
2018-Apr-04 11:00N 34°16' W 121°15'3 5.3
2018-Apr-04 10:30N 34°18' W 121°18'5 9.8
2018-Apr-04 10:00N 34°20' W 121°22'5 9.0
2018-Apr-04 09:29N 34°23' W 121°27'611.8
2018-Apr-04 09:01N 34°23' W 121°34'612.0
2018-Apr-04 08:31N 34°24' W 121°41'913.6
2018-Apr-04 07:49N 34°24' W 121°53'516.1
2018-Apr-04 07:29N 34°24' W 121°59'816.7
2018-Apr-04 06:59N 34°24' W 122°09'816.5
2018-Apr-04 06:30N 34°23' W 122°19'816.8
2018-Apr-04 06:00N 34°23' W 122°29'917.0
2018-Apr-04 05:30N 34°23' W 122°39'816.9
2018-Apr-04 05:01N 34°23' W 122°49'816.7
2018-Apr-04 04:31N 34°23' W 122°59'816.6
2018-Apr-04 04:01N 34°22' W 123°09'816.6
2018-Apr-04 03:31N 34°22' W 123°20'2416.8
2018-Apr-04 02:05N 34°21' W 123°49'117.2
2018-Apr-04 02:00N 34°21' W 123°50'1116.8
2018-Apr-04 01:21N 34°21' W 124°04'717.1
2018-Apr-04 00:55N 34°21' W 124°12'3516.0
2018-Apr-03 22:43N 34°20' W 124°55'314.6
2018-Apr-03 22:31N 34°20' W 124°59'814.3
2018-Apr-03 21:56N 34°20' W 125°09'614.3
2018-Apr-03 21:30N 34°20' W 125°16'714.4
2018-Apr-03 21:01N 34°23' W 125°24'714.4
2018-Apr-03 20:30N 34°25' W 125°33'814.2
2018-Apr-03 19:55N 34°27' W 125°42'2214.1
2018-Apr-03 18:21N 34°34' W 126°08'614.0
2018-Apr-03 17:53N 34°36' W 126°15'713.9
2018-Apr-03 17:21N 34°38' W 126°24'1714.0
2018-Apr-03 16:09N 34°43' W 126°44'214.1
2018-Apr-03 16:00N 34°44' W 126°46'814.2
2018-Apr-03 15:28N 34°46' W 126°55'714.2
2018-Apr-03 15:01N 34°48' W 127°02'714.4
2018-Apr-03 14:30N 34°50' W 127°11'  
Track history (hours):
 
Tides and Currents Weather Stations Pressure Air Temp Water Temp Dewpoint Dewpoint Depression Visibility Wind Speed Wind Dir Waves Ship Positions

New Nada

Last reported at 2018-Apr-08 07:39 UTC. Time now 2018-Apr-20 18:41 UTC.
Position N 36°45' W 123°03'.
Warning: this ship's position is 12 days out of date.

Length 180 m; beam 32.2 m.

Type: Cargo ship. MMSI: 356005000.

Date/timePositionNaut miles runAvg speedWind from/ knotsBaromVisibWave heightAir tempDewpointWater temp
2018-Apr-08 07:39N 36°45' W 123°03'416.8
2018-Apr-08 07:26N 36°48' W 123°01'816.7
2018-Apr-08 06:57N 36°55' W 122°57'716.8
2018-Apr-08 06:30N 37°02' W 122°53'816.7
2018-Apr-08 06:00N 37°10' W 122°49'816.1
2018-Apr-08 05:31N 37°17' W 122°44'714.3
2018-Apr-08 05:00N 37°24' W 122°43'714.1
2018-Apr-08 04:30N 37°31' W 122°43'714.2
2018-Apr-08 04:00N 37°38' W 122°44'713.1
2018-Apr-08 03:30N 37°44' W 122°40'4 8.5
2018-Apr-08 03:01N 37°47' W 122°36'612.6
2018-Apr-08 02:30N 37°49' W 122°29'5 9.4
2018-Apr-08 02:00N 37°53' W 122°26'611.6
2018-Apr-08 01:30N 37°59' W 122°25'612.1
2018-Apr-08 01:00N 38°03' W 122°20'612.5
2018-Apr-08 00:30N 38°03' W 122°12'3 5.4
2018-Apr-07 23:57N 38°02' W 122°08'0 0.0
2018-Apr-07 23:28N 38°02' W 122°08'0 0.1
2018-Apr-07 22:46N 38°02' W 122°08'0 0.2
2018-Apr-07 22:28N 38°02' W 122°08'0 0.1
2018-Apr-07 21:58N 38°02' W 122°08'0 0.0
2018-Apr-07 21:22N 38°02' W 122°08'0 0.1
2018-Apr-07 20:52N 38°02' W 122°08'0 0.1
2018-Apr-07 20:22N 38°02' W 122°08'0 0.1
2018-Apr-07 19:58N 38°02' W 122°08'0 0.0
2018-Apr-07 19:28N 38°02' W 122°08'0 0.1
2018-Apr-07 18:46N 38°02' W 122°08'0 0.0
2018-Apr-07 18:10N 38°02' W 122°08'0 0.0
2018-Apr-07 17:58N 38°02' W 122°08'0 0.0
2018-Apr-07 16:34N 38°02' W 122°08'0 0.5
2018-Apr-07 16:28N 38°02' W 122°08'0 0.1
2018-Apr-07 15:58N 38°02' W 122°08'0 0.1
2018-Apr-07 15:28N 38°02' W 122°08'0 0.1
2018-Apr-07 14:52N 38°02' W 122°08'0 0.0
2018-Apr-07 14:28N 38°02' W 122°08'0 0.0
2018-Apr-07 13:40N 38°02' W 122°08'0 0.0
2018-Apr-07 13:28N 38°02' W 122°08'0 0.1
2018-Apr-07 12:58N 38°02' W 122°08'0 0.1
2018-Apr-07 12:22N 38°02' W 122°08'0 0.0
2018-Apr-07 11:58N 38°02' W 122°08'0 0.0
2018-Apr-07 11:16N 38°02' W 122°08'0 0.2
2018-Apr-07 11:00N 38°02' W 122°08'1 1.8
2018-Apr-07 10:30N 38°02' W 122°09'611.1
2018-Apr-07 10:00N 38°04' W 122°16'713.6
2018-Apr-07 09:30N 38°01' W 122°24'713.7
2018-Apr-07 09:01N 37°55' W 122°27'4 8.2
2018-Apr-07 08:30N 37°51' W 122°27'611.9
2018-Apr-07 08:00N 37°47' W 122°33'713.1
2018-Apr-07 07:30N 37°45' W 122°41'2 4.1
2018-Apr-07 07:00N 37°43' W 122°40'4 7.1
2018-Apr-07 06:30N 37°39' W 122°40'510.0
2018-Apr-07 06:00N 37°34' W 122°40'4 8.6
2018-Apr-07 05:30N 37°30' W 122°40'5 9.3
2018-Apr-07 05:00N 37°25' W 122°40'5 9.6
2018-Apr-07 04:30N 37°20' W 122°40'5 9.9
2018-Apr-07 04:00N 37°16' W 122°40'510.9
2018-Apr-07 03:31N 37°10' W 122°40'3 5.7
2018-Apr-07 03:00N 37°08' W 122°38'1 2.0
2018-Apr-07 02:29N 37°07' W 122°39'1 2.0
2018-Apr-07 02:00N 37°06' W 122°40'1 1.9
2018-Apr-07 01:30N 37°05' W 122°40'0 0.4
2018-Apr-07 01:00N 37°06' W 122°40'2 1.9
2018-Apr-07 00:04N 37°04' W 122°41'0 1.6
2018-Apr-06 23:59N 37°04' W 122°41'1 1.4
2018-Apr-06 23:29N 37°03' W 122°41'4 9.4
2018-Apr-06 23:00N 36°59' W 122°38'11015.4
2018-Apr-06 15:52N 35°23' W 121°33'917.4
2018-Apr-06 15:22N 35°15' W 121°27'716.6
2018-Apr-06 14:58N 35°10' W 121°23'1116.8
2018-Apr-06 14:20N 35°00' W 121°16'616.6
2018-Apr-06 13:59N 34°55' W 121°13'916.6
2018-Apr-06 13:28N 34°48' W 121°07'916.9
2018-Apr-06 12:58N 34°41' W 121°02'716.0
2018-Apr-06 12:30N 34°34' W 120°58'816.2
2018-Apr-06 12:00N 34°27' W 120°52'915.7
2018-Apr-06 11:26N 34°24' W 120°42'1116.7
2018-Apr-06 10:46N 34°21' W 120°30'516.4
2018-Apr-06 10:27N 34°20' W 120°23'1216.8
2018-Apr-06 09:44N 34°16' W 120°09'616.5
2018-Apr-06 09:24N 34°15' W 120°03'716.8
2018-Apr-06 08:59N 34°13' W 119°55'816.7
2018-Apr-06 08:29N 34°11' W 119°45'816.6
2018-Apr-06 08:00N 34°09' W 119°36'816.6
2018-Apr-06 07:30N 34°07' W 119°26'816.0
2018-Apr-06 06:59N 34°04' W 119°16'814.2
2018-Apr-06 06:23N 34°00' W 119°08'511.6
2018-Apr-06 05:59N 33°58' W 119°03'510.2
2018-Apr-06 05:30N 33°56' W 118°57'510.7
2018-Apr-06 05:00N 33°53' W 118°52'510.6
2018-Apr-06 04:30N 33°50' W 118°46'510.7
2018-Apr-06 04:01N 33°48' W 118°41'510.7
2018-Apr-06 03:31N 33°45' W 118°35'510.8
2018-Apr-06 03:00N 33°42' W 118°29'510.7
2018-Apr-06 02:30N 33°40' W 118°24'510.3
2018-Apr-06 02:01N 33°38' W 118°18'5 9.7
2018-Apr-06 01:31N 33°40' W 118°12'4 7.4
2018-Apr-06 01:01N 33°43' W 118°11'3 5.9
2018-Apr-06 00:30N 33°46' W 118°13'1 1.7
2018-Apr-06 00:01N 33°46' W 118°13'0 0.0
2018-Apr-05 23:28N 33°46' W 118°13'0 0.0
2018-Apr-05 22:58N 33°46' W 118°13'0 0.0
2018-Apr-05 22:28N 33°46' W 118°13'0 0.0
2018-Apr-05 21:58N 33°46' W 118°13'0 0.0
2018-Apr-05 21:25N 33°46' W 118°13'0 0.0
2018-Apr-05 20:58N 33°46' W 118°13'0 0.0
2018-Apr-05 20:28N 33°46' W 118°13'0 0.0
2018-Apr-05 19:58N 33°46' W 118°13'0 0.0
2018-Apr-05 19:28N 33°46' W 118°13'0 0.0
2018-Apr-05 18:58N 33°46' W 118°13'0 0.0
2018-Apr-05 18:28N 33°46' W 118°13'0 0.0
2018-Apr-05 17:55N 33°46' W 118°13'0 0.0
2018-Apr-05 17:28N 33°46' W 118°13'0 0.0
2018-Apr-05 16:58N 33°46' W 118°13'0 0.0
2018-Apr-05 16:28N 33°46' W 118°13'0 0.0
2018-Apr-05 15:58N 33°46' W 118°13'0 0.0
2018-Apr-05 15:25N 33°46' W 118°13'0 0.0
2018-Apr-05 14:58N 33°46' W 118°13'0 0.0
2018-Apr-05 14:28N 33°46' W 118°13'0 0.0
2018-Apr-05 13:55N 33°46' W 118°13'0 0.0
2018-Apr-05 13:28N 33°46' W 118°13'0 0.0
2018-Apr-05 12:58N 33°46' W 118°13'0 0.0
2018-Apr-05 12:28N 33°46' W 118°13'0 0.0
2018-Apr-05 11:58N 33°46' W 118°13'0 0.0
2018-Apr-05 11:28N 33°46' W 118°13'0 0.0
2018-Apr-05 10:58N 33°46' W 118°13'0 0.0
2018-Apr-05 10:28N 33°46' W 118°13'0 0.0
2018-Apr-05 09:58N 33°46' W 118°13'0 0.0
2018-Apr-05 09:25N 33°46' W 118°13'0 0.0
2018-Apr-05 08:55N 33°46' W 118°13'0 0.0
2018-Apr-05 08:28N 33°46' W 118°13'0 0.2
2018-Apr-05 08:00N 33°46' W 118°13'1 2.3
2018-Apr-05 07:30N 33°45' W 118°13'4 7.4
2018-Apr-05 07:00N 33°42' W 118°11'4 7.8
2018-Apr-05 06:30N 33°38' W 118°11'5 8.0
2018-Apr-05 05:53N 33°36' W 118°17'10 8.5
2018-Apr-05 04:39N 33°40' W 118°28'1 9.6
2018-Apr-05 04:30N 33°40' W 118°30'4 7.7
2018-Apr-05 04:00N 33°42' W 118°34'510.0
2018-Apr-05 03:30N 33°45' W 118°39'510.0
2018-Apr-05 03:00N 33°47' W 118°44'510.0
2018-Apr-05 02:30N 33°50' W 118°49'5 9.7
2018-Apr-05 02:00N 33°52' W 118°55'510.0
2018-Apr-05 01:30N 33°55' W 118°60'510.0
2018-Apr-05 01:00N 33°57' W 119°05'510.2
2018-Apr-05 00:30N 33°60' W 119°10'510.8
2018-Apr-05 00:00N 34°02' W 119°16'612.2
2018-Apr-04 23:30N 34°04' W 119°23'713.6
2018-Apr-04 23:00N 34°06' W 119°31'713.9
2018-Apr-04 22:30N 34°08' W 119°39'714.1
2018-Apr-04 21:59N 34°10' W 119°48'714.3
2018-Apr-04 21:29N 34°12' W 119°56'714.0
2018-Apr-04 21:00N 34°13' W 120°04'714.0
2018-Apr-04 20:29N 34°15' W 120°12'814.5
2018-Apr-04 19:58N 34°17' W 120°21'714.3
2018-Apr-04 19:30N 34°19' W 120°29'714.3
2018-Apr-04 19:00N 34°21' W 120°37'714.1
2018-Apr-04 18:30N 34°23' W 120°45'815.9
2018-Apr-04 18:00N 34°23' W 120°55'815.9
2018-Apr-04 17:30N 34°18' W 121°02'713.8
2018-Apr-04 17:00N 34°14' W 121°09'4 7.8
2018-Apr-04 16:30N 34°10' W 121°11'0 1.0
2018-Apr-04 16:00N 34°11' W 121°11'1 1.0
2018-Apr-04 15:29N 34°11' W 121°12'1 1.2
2018-Apr-04 15:00N 34°11' W 121°12'1 1.1
2018-Apr-04 14:30N 34°12' W 121°12'1 1.1
2018-Apr-04 13:58N 34°12' W 121°13'1 1.2
2018-Apr-04 13:30N 34°13' W 121°13'1 1.1
2018-Apr-04 13:01N 34°13' W 121°13'1 1.4
2018-Apr-04 12:30N 34°14' W 121°14'1 1.5
2018-Apr-04 12:00N 34°15' W 121°14'1 1.6
2018-Apr-04 11:30N 34°15' W 121°14'1 1.6
2018-Apr-04 11:00N 34°16' W 121°15'3 5.3
2018-Apr-04 10:30N 34°18' W 121°18'5 9.8
2018-Apr-04 10:00N 34°20' W 121°22'5 9.0
2018-Apr-04 09:29N 34°23' W 121°27'611.8
2018-Apr-04 09:01N 34°23' W 121°34'612.0
2018-Apr-04 08:31N 34°24' W 121°41'913.6
2018-Apr-04 07:49N 34°24' W 121°53'516.1
2018-Apr-04 07:29N 34°24' W 121°59'816.7
2018-Apr-04 06:59N 34°24' W 122°09'816.5
2018-Apr-04 06:30N 34°23' W 122°19'816.8
2018-Apr-04 06:00N 34°23' W 122°29'917.0
2018-Apr-04 05:30N 34°23' W 122°39'816.9
2018-Apr-04 05:01N 34°23' W 122°49'816.7
2018-Apr-04 04:31N 34°23' W 122°59'816.6
2018-Apr-04 04:01N 34°22' W 123°09'816.6
2018-Apr-04 03:31N 34°22' W 123°20'2416.8
2018-Apr-04 02:05N 34°21' W 123°49'117.2
2018-Apr-04 02:00N 34°21' W 123°50'1116.8
2018-Apr-04 01:21N 34°21' W 124°04'717.1
2018-Apr-04 00:55N 34°21' W 124°12'3516.0
2018-Apr-03 22:43N 34°20' W 124°55'314.6
2018-Apr-03 22:31N 34°20' W 124°59'814.3
2018-Apr-03 21:56N 34°20' W 125°09'614.3
2018-Apr-03 21:30N 34°20' W 125°16'714.4
2018-Apr-03 21:01N 34°23' W 125°24'714.4
2018-Apr-03 20:30N 34°25' W 125°33'814.2
2018-Apr-03 19:55N 34°27' W 125°42'2214.1
2018-Apr-03 18:21N 34°34' W 126°08'614.0
2018-Apr-03 17:53N 34°36' W 126°15'713.9
2018-Apr-03 17:21N 34°38' W 126°24'1714.0
2018-Apr-03 16:09N 34°43' W 126°44'214.1
2018-Apr-03 16:00N 34°44' W 126°46'814.2
2018-Apr-03 15:28N 34°46' W 126°55'714.2
2018-Apr-03 15:01N 34°48' W 127°02'714.4
2018-Apr-03 14:30N 34°50' W 127°11'  

Dump ship's entire track history